Time;durP1;ratioP1;P1;durP2;ratioP2;P2;SDS_P1;SDS_P2;PMS_P1;PMS_P2;Temp;Humidity;BMP_temperature;BMP_pressure;BME280_temperature;BME280_humidity;BME280_pressure;Samples;Min_cycle;Max_cycle;Signal;HPM_P1;HPM_P2
2021/06/03 00:01:27;;;;;;;5.40;4.90;;;;;;;;;;5034586;28;20455;-86
2021/06/03 00:03:54;;;;;;;4.80;4.40;;;;;;;;;;5035596;28;20447;-87
2021/06/03 00:06:22;;;;;;;5.07;4.67;;;15.80;99.90;;;;;;5037039;28;20447;-87
2021/06/03 00:08:49;;;;;;;5.23;4.70;;;;;;;;;;5036395;28;20443;-87
2021/06/03 00:11:15;;;;;;;5.50;5.00;;;;;;;;;;5038833;28;20456;-87
2021/06/03 00:13:46;;;;;;;5.97;5.37;;;15.50;99.90;;;;;;5038119;28;20485;-86
2021/06/03 00:16:14;;;;;;;5.67;5.17;;;15.50;99.90;;;;;;5038062;28;20542;-88
2021/06/03 00:18:42;;;;;;;6.13;5.53;;;15.50;99.90;;;;;;5038036;28;20455;-87
2021/06/03 00:21:09;;;;;;;5.47;4.97;;;15.60;99.90;;;;;;5036814;28;20450;-87
2021/06/03 00:23:37;;;;;;;6.60;4.80;;;15.50;99.90;;;;;;5036982;28;20500;-87
2021/06/03 00:26:04;;;;;;;8.23;5.80;;;;;;;;;;5036782;28;20439;-87
2021/06/03 00:28:30;;;;;;;5.70;5.17;;;;;;;;;;5036992;28;20458;-87
2021/06/03 00:30:57;;;;;;;5.73;4.90;;;;;;;;;;5038086;28;20446;-87
2021/06/03 00:33:24;;;;;;;6.10;5.37;;;;;;;;;;5037536;28;20957;-88
2021/06/03 00:35:51;;;;;;;4.70;4.20;;;;;;;;;;5036001;28;20491;-87
2021/06/03 00:38:18;;;;;;;5.80;5.30;;;;;;;;;;5036811;28;20447;-87
2021/06/03 00:40:46;;;;;;;5.97;5.33;;;14.90;99.90;;;;;;5036546;28;20451;-87
2021/06/03 00:43:12;;;;;;;5.67;5.17;;;;;;;;;;5037023;28;20455;-88
2021/06/03 00:45:40;;;;;;;5.40;4.90;;;14.90;99.90;;;;;;5038311;28;20458;-86
2021/06/03 00:48:08;;;;;;;6.07;5.47;;;14.80;99.90;;;;;;5034265;28;20451;-87
2021/06/03 00:50:37;;;;;;;9.30;5.30;;;14.80;99.90;;;;;;5035335;28;20446;-88
2021/06/03 00:53:04;;;;;;;5.63;5.13;;;;;;;;;;5037094;28;20455;-87
2021/06/03 00:55:31;;;;;;;7.80;5.50;;;;;;;;;;5036723;28;20503;-86
2021/06/03 00:58:00;;;;;;;7.03;4.97;;;14.70;99.90;;;;;;5037206;28;20455;-87
2021/06/03 01:00:26;;;;;;;5.77;4.87;;;14.90;99.90;;;;;;5036369;28;20443;-88
2021/06/03 01:02:53;;;;;;;5.60;5.10;;;14.70;99.90;;;;;;5036790;28;20463;-87
2021/06/03 01:05:21;;;;;;;6.33;5.33;;;14.60;99.90;;;;;;5036213;28;20779;-87
2021/06/03 01:07:48;;;;;;;6.93;5.10;;;14.50;99.90;;;;;;5036297;28;20447;-88
2021/06/03 01:10:20;;;;;;;5.80;5.20;;;14.80;99.90;;;;;;5036854;28;20456;-87
2021/06/03 01:12:56;;;;;;;6.97;5.90;;;14.50;99.90;;;;;;5036089;28;20443;-87
2021/06/03 01:15:25;;;;;;;7.20;5.47;;;14.60;99.90;;;;;;5035923;28;20517;-86
2021/06/03 01:17:51;;;;;;;6.73;6.10;;;;;;;;;;5038673;28;20949;-86
2021/06/03 01:20:20;;;;;;;6.77;5.93;;;14.20;99.90;;;;;;5034366;28;20470;-87
2021/06/03 01:22:54;;;;;;;7.33;6.67;;;14.10;99.90;;;;;;5035588;28;20455;-87
2021/06/03 01:25:24;;;;;;;10.10;6.07;;;13.80;99.90;;;;;;5036913;28;20947;-87
2021/06/03 01:27:52;;;;;;;6.00;5.40;;;14.30;99.90;;;;;;5035997;28;20443;-88
2021/06/03 01:30:21;;;;;;;5.90;5.30;;;14.20;99.90;;;;;;5036459;28;20452;-88
2021/06/03 01:32:51;;;;;;;7.30;6.60;;;13.90;99.90;;;;;;5035891;28;20463;-88
2021/06/03 01:35:21;;;;;;;6.87;5.70;;;14.10;99.90;;;;;;5033987;28;20558;-87
2021/06/03 01:37:49;;;;;;;6.50;5.27;;;14.20;99.90;;;;;;5035610;28;20458;-86
2021/06/03 01:40:18;;;;;;;6.17;5.57;;;14.20;99.90;;;;;;5033447;28;20486;-87
2021/06/03 01:42:47;;;;;;;6.00;5.47;;;14.30;99.90;;;;;;5035991;28;20451;-88
2021/06/03 01:45:15;;;;;;;6.83;5.73;;;14.20;99.90;;;;;;5034357;28;20455;-87
2021/06/03 01:47:42;;;;;;;5.47;4.97;;;14.10;99.90;;;;;;5035472;28;20444;-86
2021/06/03 01:50:10;;;;;;;8.80;5.73;;;14.20;99.90;;;;;;5034465;28;20447;-87
2021/06/03 01:52:37;;;;;;;6.00;5.40;;;13.90;99.90;;;;;;5033096;28;20458;-87
2021/06/03 01:55:05;;;;;;;4.83;4.40;;;14.00;99.90;;;;;;5035694;28;20490;-86
2021/06/03 01:57:32;;;;;;;5.13;4.67;;;13.80;99.90;;;;;;5035755;28;20447;-86
2021/06/03 01:59:59;;;;;;;6.93;5.70;;;13.50;99.90;;;;;;5035832;28;20462;-87
2021/06/03 02:02:25;;;;;;;5.23;4.73;;;14.30;99.90;;;;;;5035367;28;20444;-87
2021/06/03 02:04:52;;;;;;;6.77;5.40;;;13.90;99.90;;;;;;5030941;28;20432;-87
2021/06/03 02:07:18;;;;;;;5.33;4.83;;;;;;;;;;5035324;28;20447;-87
2021/06/03 02:09:45;;;;;;;5.53;5.13;;;;;;;;;;5036123;28;20516;-87
2021/06/03 02:12:13;;;;;;;7.30;5.90;;;14.00;99.90;;;;;;5036113;28;20448;-87
2021/06/03 02:14:41;;;;;;;7.43;4.90;;;13.90;99.90;;;;;;5033153;28;20471;-86
2021/06/03 02:17:12;;;;;;;5.10;4.70;;;13.50;99.90;;;;;;5035063;28;20523;-87
2021/06/03 02:19:47;;;;;;;5.43;4.97;;;14.00;99.90;;;;;;5025734;28;20444;-87
2021/06/03 02:22:17;;;;;;;6.20;5.47;;;;;;;;;;5022423;28;20443;-86
2021/06/03 02:24:51;;;;;;;5.80;5.20;;;14.00;99.90;;;;;;5029064;28;20922;-88
2021/06/03 02:27:22;;;;;;;7.10;5.00;;;14.20;99.90;;;;;;5023176;28;20442;-86
2021/06/03 02:29:53;;;;;;;5.93;5.43;;;14.10;99.90;;;;;;5029008;28;20421;-87
2021/06/03 02:32:22;;;;;;;6.20;5.30;;;14.10;99.90;;;;;;5032812;28;20454;-88
2021/06/03 02:34:53;;;;;;;5.50;5.00;;;14.40;99.90;;;;;;5021896;28;20491;-86
2021/06/03 02:37:23;;;;;;;5.67;4.90;;;14.20;99.90;;;;;;5023465;28;20462;-87
2021/06/03 02:39:53;;;;;;;5.10;4.70;;;;;;;;;;5021789;28;20448;-88
2021/06/03 02:42:22;;;;;;;6.17;4.67;;;;;;;;;;5022683;28;20448;-89
2021/06/03 02:44:48;;;;;;;7.53;5.00;;;14.10;99.90;;;;;;5022744;28;20436;-86
2021/06/03 02:47:18;;;;;;;6.10;5.50;;;14.30;99.90;;;;;;5024119;28;20935;-87
2021/06/03 02:49:51;;;;;;;6.67;4.80;;;14.40;99.90;;;;;;5024805;28;20473;-85
2021/06/03 02:52:17;;;;;;;6.20;5.00;;;14.10;99.90;;;;;;5024419;28;20809;-87
2021/06/03 02:54:46;;;;;;;5.37;4.87;;;14.80;99.90;;;;;;5023808;28;20484;-88
2021/06/03 02:57:12;;;;;;;5.63;5.07;;;14.20;99.90;;;;;;5024136;28;20878;-86
2021/06/03 02:59:40;;;;;;;6.03;5.20;;;14.40;99.90;;;;;;5022163;28;20448;-87
2021/06/03 03:02:07;;;;;;;6.00;5.50;;;;;;;;;;5025072;28;20449;-87
2021/06/03 03:04:34;;;;;;;5.20;4.70;;;;;;;;;;5020886;28;20960;-86
2021/06/03 03:07:07;;;;;;;5.73;5.13;;;;;;;;;;5023508;28;20440;-87
2021/06/03 03:09:35;;;;;;;4.63;4.23;;;;;;;;;;5024123;28;20963;-88
2021/06/03 03:12:01;;;;;;;4.83;4.33;;;;;;;;;;5022776;28;20444;-89
2021/06/03 03:14:27;;;;;;;5.33;4.83;;;15.10;99.90;;;;;;5023311;28;20491;-87
2021/06/03 03:16:55;;;;;;;4.73;4.33;;;;;;;;;;5013955;28;20456;-89
2021/06/03 03:19:22;;;;;;;4.20;3.90;;;;;;;;;;5014169;28;20456;-88
2021/06/03 03:21:49;;;;;;;4.70;4.23;;;;;;;;;;5012919;28;20460;-88
2021/06/03 03:24:16;;;;;;;4.63;4.23;;;15.10;99.90;;;;;;5014556;28;20456;-87
2021/06/03 03:26:43;;;;;;;5.00;4.60;;;;;;;;;;5011885;28;20467;-88
2021/06/03 03:29:09;;;;;;;5.50;4.20;;;15.30;99.90;;;;;;5014217;28;20526;-87
2021/06/03 03:31:35;;;;;;;5.23;4.73;;;15.60;99.90;;;;;;5013943;28;20452;-87
2021/06/03 03:34:03;;;;;;;4.40;4.07;;;15.50;99.90;;;;;;5014087;28;20448;-87
2021/06/03 03:36:29;;;;;;;4.40;4.10;;;15.20;99.90;;;;;;5013049;28;21010;-88
2021/06/03 03:38:56;;;;;;;4.87;4.37;;;;;;;;;;5016014;28;20455;-88
2021/06/03 03:41:24;;;;;;;5.00;4.63;;;15.60;99.90;;;;;;5018369;28;20830;-88
2021/06/03 03:43:51;;;;;;;4.87;4.47;;;15.70;99.90;;;;;;5017938;28;20546;-88
2021/06/03 03:46:18;;;;;;;6.33;4.70;;;15.60;99.90;;;;;;5018230;28;20491;-88
2021/06/03 03:48:45;;;;;;;4.70;4.30;;;;;;;;;;5018459;28;20448;-88
2021/06/03 03:51:13;;;;;;;4.30;3.60;;;;;;;;;;5018894;28;20451;-89
2021/06/03 03:53:40;;;;;;;3.90;3.60;;;16.10;99.90;;;;;;5017892;28;20472;-88
2021/06/03 03:56:06;;;;;;;4.43;3.70;;;15.80;99.90;;;;;;5017898;28;20500;-88
2021/06/03 03:58:38;;;;;;;4.60;3.80;;;16.00;99.90;;;;;;5018397;28;20472;-87
2021/06/03 04:01:06;;;;;;;3.23;3.03;;;16.30;99.90;;;;;;5018769;28;20444;-88
2021/06/03 04:03:32;;;;;;;4.23;3.30;;;16.20;99.90;;;;;;5019234;28;20460;-88
2021/06/03 04:05:59;;;;;;;3.67;3.37;;;16.00;99.90;;;;;;5016662;28;20448;-88
2021/06/03 04:08:26;;;;;;;4.30;3.60;;;;;;;;;;5017348;28;20451;-88
2021/06/03 04:10:52;;;;;;;3.87;3.57;;;;;;;;;;5018507;28;20515;-87
2021/06/03 04:13:19;;;;;;;3.80;3.13;;;;;;;;;;5018910;28;20444;-88
2021/06/03 04:15:47;;;;;;;3.73;3.10;;;16.50;99.90;;;;;;5016950;28;20491;-87
2021/06/03 04:18:14;;;;;;;4.07;3.77;;;;;;;;;;5018781;28;20444;-87
2021/06/03 04:20:41;;;;;;;3.90;3.60;;;;;;;;;;5018178;28;20459;-87
2021/06/03 04:23:07;;;;;;;4.50;4.10;;;16.80;99.90;;;;;;5022063;28;20460;-87
2021/06/03 04:25:34;;;;;;;5.30;4.80;;;;;;;;;;5017346;28;20452;-88
2021/06/03 04:28:00;;;;;;;4.73;3.73;;;16.50;99.90;;;;;;5016998;28;20448;-87
2021/06/03 04:30:28;;;;;;;3.70;3.40;;;16.60;99.90;;;;;;5016852;28;20813;-88
2021/06/03 04:32:56;;;;;;;3.90;3.53;;;16.70;99.90;;;;;;5017391;28;20510;-87
2021/06/03 04:35:24;;;;;;;4.20;3.80;;;16.70;99.90;;;;;;5015603;28;20570;-88
2021/06/03 04:37:51;;;;;;;3.70;3.40;;;16.80;99.90;;;;;;5017294;28;20452;-88
2021/06/03 04:40:20;;;;;;;4.70;3.80;;;16.80;99.90;;;;;;5015638;28;20455;-88
2021/06/03 04:42:47;;;;;;;5.50;3.73;;;16.90;99.90;;;;;;5016576;28;20453;-88
2021/06/03 04:45:15;;;;;;;4.13;3.83;;;16.90;99.90;;;;;;5016884;28;20444;-88
2021/06/03 04:47:42;;;;;;;4.87;3.77;;;17.10;99.90;;;;;;5017409;28;20819;-88
2021/06/03 04:50:12;;;;;;;3.83;3.50;;;17.20;99.90;;;;;;5015382;28;20452;-87
2021/06/03 04:52:38;;;;;;;5.83;4.03;;;;;;;;;;5016950;28;20956;-86
2021/06/03 04:55:08;;;;;;;3.90;3.60;;;17.30;99.90;;;;;;5016617;28;20500;-88
2021/06/03 04:57:35;;;;;;;4.60;4.20;;;17.20;99.90;;;;;;5018213;28;20479;-88
2021/06/03 05:00:03;;;;;;;4.37;3.97;;;17.10;99.90;;;;;;5019590;28;20462;-89
2021/06/03 05:02:29;;;;;;;4.67;4.27;;;17.60;99.90;;;;;;4937426;29;20451;-87
2021/06/03 05:04:55;;;;;;;8.40;4.13;;;17.60;99.90;;;;;;4937920;29;20448;-88
2021/06/03 05:07:23;;;;;;;3.63;3.20;;;17.70;99.90;;;;;;4938743;29;20514;-88
2021/06/03 05:09:50;;;;;;;4.00;3.70;;;;;;;;;;4938116;29;20463;-88
2021/06/03 05:12:17;;;;;;;5.73;3.97;;;;;;;;;;4938110;29;20459;-87
2021/06/03 05:14:43;;;;;;;3.87;3.57;;;;;;;;;;4938445;29;20847;-87
2021/06/03 05:17:10;;;;;;;3.97;3.43;;;;;;;;;;4935014;29;20488;-87
2021/06/03 05:19:37;;;;;;;4.47;3.03;;;;;;;;;;5036835;23;20971;-87
2021/06/03 05:22:10;;;;;;;3.60;3.30;;;18.30;99.90;;;;;;5064178;23;20491;-86
2021/06/03 05:24:45;;;;;;;3.67;3.37;;;;;;;;;;5045602;28;20446;-88
2021/06/03 05:27:19;;;;;;;4.17;3.40;;;18.90;99.90;;;;;;5047540;28;20454;-88
2021/06/03 05:29:54;;;;;;;4.07;3.23;;;;;;;;;;5090186;23;20482;-87
2021/06/03 05:32:22;;;;;;;3.03;2.83;;;;;;;;;;5045967;28;20496;-87
2021/06/03 05:34:49;;;;;;;2.80;2.60;;;;;;;;;;5044287;28;20480;-88
2021/06/03 05:37:15;;;;;;;2.77;2.57;;;;;;;;;;5048583;28;20448;-87
2021/06/03 05:39:43;;;;;;;2.70;2.50;;;19.70;99.90;;;;;;5052556;28;20446;-87
2021/06/03 05:42:10;;;;;;;2.90;2.70;;;19.40;99.90;;;;;;5048891;28;20441;-88
2021/06/03 05:44:36;;;;;;;2.80;2.50;;;19.10;99.90;;;;;;5049269;28;20443;-88
2021/06/03 05:47:10;;;;;;;2.83;2.63;;;;;;;;;;5046547;28;20446;-90
2021/06/03 05:49:38;;;;;;;3.03;2.50;;;;;;;;;;5044019;28;20451;-90
2021/06/03 05:52:05;;;;;;;3.03;2.73;;;;;;;;;;5049803;28;20496;-87
2021/06/03 05:54:33;;;;;;;3.27;2.93;;;18.70;99.90;;;;;;5053641;28;20461;-87
2021/06/03 05:57:02;;;;;;;5.33;3.33;;;18.70;99.90;;;;;;5045906;28;20982;-86
2021/06/03 05:59:29;;;;;;;3.20;2.90;;;;;;;;;;5051752;28;20472;-88
2021/06/03 06:01:59;;;;;;;5.70;2.90;;;;;;;;;;5045462;28;20942;-88
2021/06/03 06:07:13;;;;;;;6.93;3.60;;;;;;;;;;5054843;28;20446;-87
2021/06/03 06:09:40;;;;;;;6.03;3.10;;;;;;;;;;5054807;28;20465;-88
2021/06/03 06:12:09;;;;;;;3.37;2.97;;;18.70;99.90;;;;;;5054484;28;20943;-86
2021/06/03 06:14:35;;;;;;;5.50;2.80;;;;;;;;;;5054383;28;20450;-86
2021/06/03 06:17:02;;;;;;;3.33;2.93;;;18.70;99.90;;;;;;5054339;28;20454;-86
2021/06/03 06:19:30;;;;;;;3.90;2.90;;;;;;;;;;5054281;28;20500;-86
2021/06/03 06:21:57;;;;;;;5.07;3.10;;;18.00;99.90;;;;;;5052914;28;20553;-86
2021/06/03 06:24:23;;;;;;;3.50;3.13;;;;;;;;;;5054396;28;20450;-87
2021/06/03 06:26:50;;;;;;;3.30;2.70;;;18.80;99.90;;;;;;5054458;28;20477;-86
2021/06/03 06:29:18;;;;;;;2.97;2.50;;;19.20;99.90;;;;;;5054662;28;20470;-87
2021/06/03 06:31:44;;;;;;;2.77;2.57;;;18.40;99.90;;;;;;5054291;28;20469;-87
2021/06/03 06:34:13;;;;;;;3.23;2.93;;;19.50;99.90;;;;;;5051738;28;20980;-87
2021/06/03 06:36:40;;;;;;;3.70;3.30;;;;;;;;;;5048167;28;20529;-88
2021/06/03 06:39:07;;;;;;;2.60;2.40;;;;;;;;;;5049755;28;20448;-87
2021/06/03 06:41:34;;;;;;;3.53;3.20;;;;;;;;;;5058313;28;20461;-88
2021/06/03 06:44:00;;;;;;;4.33;3.00;;;21.80;99.90;;;;;;5057847;28;20447;-88
2021/06/03 06:46:31;;;;;;;3.40;3.10;;;22.00;99.90;;;;;;5057258;28;20454;-88
2021/06/03 06:48:57;;;;;;;5.47;3.20;;;;;;;;;;5059433;28;20508;-87
2021/06/03 06:51:24;;;;;;;3.30;3.00;;;23.30;99.90;;;;;;5054372;28;20454;-86
2021/06/03 06:53:50;;;;;;;3.67;3.07;;;24.00;99.90;;;;;;5056037;28;20474;-87
2021/06/03 06:56:25;;;;;;;3.40;3.10;;;;;;;;;;5050242;28;20498;-85
2021/06/03 06:58:51;;;;;;;4.17;3.17;;;23.10;99.90;;;;;;5043661;28;21081;-85
2021/06/03 07:01:20;;;;;;;3.10;2.80;;;22.20;99.90;;;;;;5047938;28;20438;-88
2021/06/03 07:03:48;;;;;;;6.13;2.77;;;;;;;;;;5045703;28;20444;-86
2021/06/03 07:06:14;;;;;;;4.60;3.43;;;22.00;99.90;;;;;;5050881;28;20454;-84
2021/06/03 07:08:44;;;;;;;3.30;3.10;;;19.80;99.90;;;;;;5041944;28;20844;-86
2021/06/03 07:11:12;;;;;;;3.33;2.80;;;21.80;99.90;;;;;;5042415;28;21009;-87
2021/06/03 07:13:38;;;;;;;3.23;2.93;;;22.10;99.90;;;;;;5043315;28;20524;-85
2021/06/03 07:16:07;;;;;;;2.70;2.50;;;22.30;99.90;;;;;;5041422;28;20498;-87
2021/06/03 07:18:36;;;;;;;4.03;2.97;;;23.10;99.90;;;;;;5044496;28;20463;-86
2021/06/03 07:21:07;;;;;;;3.97;2.63;;;23.00;99.90;;;;;;5040269;28;20450;-86
2021/06/03 07:23:33;;;;;;;2.70;2.50;;;;;;;;;;5042353;28;20461;-88
2021/06/03 07:26:03;;;;;;;2.80;2.60;;;21.70;99.90;;;;;;5047700;28;20500;-88
2021/06/03 07:28:32;;;;;;;2.80;2.47;;;21.70;99.90;;;;;;5044006;28;20447;-87
2021/06/03 07:31:01;;;;;;;2.33;2.13;;;;;;;;;;5041302;28;20606;-88
2021/06/03 07:33:28;;;;;;;2.70;2.50;;;;;;;;;;5040812;28;20510;-90
2021/06/03 07:35:55;;;;;;;3.80;2.70;;;;;;;;;;5033909;28;20559;-89
2021/06/03 07:38:23;;;;;;;3.87;2.50;;;21.80;99.90;;;;;;5034282;28;20468;-87
2021/06/03 07:40:50;;;;;;;3.07;2.77;;;21.30;99.90;;;;;;5035322;28;20826;-87
2021/06/03 07:43:17;;;;;;;5.03;2.53;;;;;;;;;;5036962;28;20463;-89
2021/06/03 07:45:44;;;;;;;4.10;2.57;;;;;;;;;;5035252;28;20452;-92
2021/06/03 07:48:11;;;;;;;2.80;1.90;;;22.40;99.90;;;;;;5039225;28;20482;-91
2021/06/03 07:50:38;;;;;;;3.47;2.33;;;;;;;;;;5032761;28;20455;-86
2021/06/03 07:53:06;;;;;;;5.87;2.53;;;23.60;99.90;;;;;;5034762;28;20447;-87
2021/06/03 07:55:34;;;;;;;2.80;2.50;;;23.60;99.90;;;;;;5034058;28;21030;-90
2021/06/03 07:58:03;;;;;;;6.20;2.10;;;23.50;99.30;;;;;;5033944;28;20459;-90
2021/06/03 08:00:31;;;;;;;2.60;2.40;;;24.80;98.70;;;;;;5034810;28;20516;-91
2021/06/03 08:02:57;;;;;;;2.87;2.60;;;;;;;;;;5036340;28;20481;-87
2021/06/03 08:05:27;;;;;;;2.93;2.60;;;25.70;96.60;;;;;;5037450;28;20938;-87
2021/06/03 08:07:54;;;;;;;4.03;2.50;;;26.20;96.00;;;;;;5034894;28;20463;-92
2021/06/03 08:10:24;;;;;;;2.30;2.10;;;24.60;96.60;;;;;;5035877;28;20459;-90
2021/06/03 08:12:52;;;;;;;2.20;2.10;;;24.70;98.00;;;;;;5034843;28;20455;-87
2021/06/03 08:15:20;;;;;;;3.37;2.40;;;23.90;99.90;;;;;;5034508;28;20529;-90
2021/06/03 08:17:46;;;;;;;2.13;1.93;;;;;;;;;;5034796;28;20479;-88
2021/06/03 08:20:15;;;;;;;3.70;2.07;;;24.60;99.90;;;;;;5034779;28;20436;-90
2021/06/03 08:22:42;;;;;;;3.20;2.20;;;;;;;;;;5036267;28;20448;-92
2021/06/03 08:25:10;;;;;;;2.83;2.53;;;25.10;96.60;;;;;;5039702;28;20459;-90
2021/06/03 08:27:37;;;;;;;2.40;2.20;;;;;;;;;;5041437;28;20503;-86
2021/06/03 08:30:08;;;;;;;2.30;2.00;;;24.70;96.70;;;;;;5042886;28;20479;-87
2021/06/03 08:32:35;;;;;;;2.43;2.23;;;;;;;;;;5042053;28;20437;-92
2021/06/03 08:35:02;;;;;;;3.30;2.23;;;;;;;;;;5039428;28;20451;-88
2021/06/03 08:37:30;;;;;;;2.53;1.93;;;;;;;;;;5038039;28;20965;-91
2021/06/03 08:39:56;;;;;;;3.57;2.30;;;;;;;;;;5038581;28;20506;-87
2021/06/03 08:42:23;;;;;;;2.57;2.37;;;;;;;;;;5038340;28;20533;-89
2021/06/03 08:44:50;;;;;;;2.40;2.20;;;;;;;;;;5041216;28;20459;-87
2021/06/03 08:47:17;;;;;;;3.83;2.10;;;24.90;94.50;;;;;;5038333;28;20455;-87
2021/06/03 08:49:45;;;;;;;2.43;2.00;;;24.20;95.60;;;;;;5036004;28;20435;-87
2021/06/03 08:52:13;;;;;;;2.70;2.00;;;23.90;99.90;;;;;;5036079;28;20451;-88
2021/06/03 08:54:40;;;;;;;4.30;2.57;;;;;;;;;;5035952;28;20487;-86
2021/06/03 08:57:08;;;;;;;2.23;2.00;;;23.70;99.90;;;;;;5035894;28;20577;-88
2021/06/03 08:59:34;;;;;;;1.97;1.87;;;;;;;;;;5042545;28;20450;-87
2021/06/03 09:02:01;;;;;;;2.20;2.00;;;24.80;99.90;;;;;;5036329;28;20501;-86
2021/06/03 09:04:29;;;;;;;1.93;1.83;;;24.90;95.40;;;;;;5036354;28;20538;-88
2021/06/03 09:06:55;;;;;;;5.30;2.73;;;24.50;99.90;;;;;;5035478;28;20965;-86
2021/06/03 09:09:26;;;;;;;2.67;2.00;;;25.10;99.90;;;;;;5035676;28;20454;-88
2021/06/03 09:12:19;;;;;;;3.43;2.43;;;25.30;99.90;;;;;;5035554;28;20799;-86
2021/06/03 09:14:47;;;;;;;2.37;2.20;;;24.50;99.90;;;;;;5044033;28;20450;-87
2021/06/03 09:17:16;;;;;;;2.67;2.23;;;;;;;;;;5043759;28;20497;-88
2021/06/03 09:19:52;;;;;;;2.70;2.50;;;25.50;94.60;;;;;;5048843;28;20440;-85
2021/06/03 09:22:37;;;;;;;2.33;2.10;;;25.10;95.20;;;;;;5034784;28;20501;-89
2021/06/03 09:25:38;;;;;;;3.23;2.10;;;26.50;99.90;;;;;;5049042;28;20466;-87
2021/06/03 09:28:23;;;;;;;2.80;2.40;;;27.30;99.90;;;;;;5037453;28;20454;-86
2021/06/03 09:31:14;;;;;;;2.47;2.17;;;27.70;90.30;;;;;;5049408;28;20470;-86
2021/06/03 09:34:00;;;;;;;3.67;1.97;;;26.60;99.60;;;;;;5041854;28;20470;-86
2021/06/03 09:36:40;;;;;;;1.80;1.70;;;26.60;99.90;;;;;;5040239;28;20502;-88
2021/06/03 09:39:16;;;;;;;1.97;1.80;;;26.80;90.40;;;;;;5055341;28;20446;-88
2021/06/03 09:41:46;;;;;;;2.00;1.80;;;27.20;98.30;;;;;;5052799;28;20952;-89
2021/06/03 09:44:19;;;;;;;2.17;1.87;;;26.30;99.90;;;;;;5055268;28;20812;-88
2021/06/03 09:46:47;;;;;;;2.10;2.00;;;26.40;99.90;;;;;;5054937;28;20443;-86
2021/06/03 09:49:22;;;;;;;2.70;2.17;;;26.60;99.90;;;;;;5049850;28;20461;-85
2021/06/03 09:51:52;;;;;;;2.27;1.80;;;27.70;99.90;;;;;;5053526;28;20507;-87
2021/06/03 09:54:21;;;;;;;2.90;2.10;;;27.50;99.90;;;;;;5054908;28;20480;-89
2021/06/03 09:56:50;;;;;;;2.37;2.17;;;27.10;99.00;;;;;;5055279;28;20486;-92
2021/06/03 09:59:20;;;;;;;2.50;2.30;;;27.80;99.90;;;;;;5056084;28;20454;-89
2021/06/03 10:02:07;;;;;;;2.50;2.30;;;26.70;98.50;;;;;;5055819;28;20541;-87
2021/06/03 10:04:37;;;;;;;4.30;2.30;;;27.30;88.30;;;;;;5057319;28;20455;-88
2021/06/03 10:07:10;;;;;;;2.30;2.10;;;28.00;86.10;;;;;;5057317;28;20439;-94
2021/06/03 10:09:43;;;;;;;1.97;1.87;;;28.30;99.90;;;;;;5055846;28;20447;-86
2021/06/03 10:12:11;;;;;;;6.33;2.17;;;28.50;86.10;;;;;;5061335;28;20458;-92
2021/06/03 10:14:38;;;;;;;2.43;2.23;;;;;;;;;;5057056;28;20934;-90
2021/06/03 10:17:19;;;;;;;3.50;2.87;;;28.40;96.90;;;;;;5056442;28;20989;-90
2021/06/03 10:19:47;;;;;;;3.10;2.77;;;27.80;84.70;;;;;;5053882;28;20442;-88
2021/06/03 10:22:20;;;;;;;2.80;2.00;;;28.00;83.80;;;;;;5057380;28;20846;-91
2021/06/03 10:25:09;;;;;;;2.10;1.70;;;28.70;99.90;;;;;;5054697;28;20455;-89
2021/06/03 10:27:37;;;;;;;7.17;2.20;;;29.40;86.40;;;;;;5054707;28;20946;-88
2021/06/03 10:30:11;;;;;;;2.27;2.03;;;29.90;99.90;;;;;;5054187;28;20493;-89
2021/06/03 10:32:39;;;;;;;2.37;2.10;;;29.10;80.40;;;;;;5062854;28;20492;-86
2021/06/03 10:35:07;;;;;;;2.20;2.00;;;29.30;99.90;;;;;;5056344;28;20528;-87
2021/06/03 10:37:35;;;;;;;1.90;1.80;;;29.60;77.90;;;;;;5055756;28;20458;-86
2021/06/03 10:40:03;;;;;;;4.73;1.73;;;29.90;74.00;;;;;;5057412;28;20453;-88
2021/06/03 10:42:29;;;;;;;5.47;1.80;;;;;;;;;;5055387;28;20866;-88
2021/06/03 10:44:56;;;;;;;2.47;2.27;;;;;;;;;;5057495;28;20458;-86
2021/06/03 10:47:22;;;;;;;4.30;1.97;;;29.50;99.90;;;;;;5057584;28;20461;-88
2021/06/03 10:49:49;;;;;;;2.83;1.83;;;;;;;;;;5054328;28;20933;-87
2021/06/03 10:52:17;;;;;;;2.27;2.00;;;27.60;87.00;;;;;;5056690;28;20435;-88
2021/06/03 10:54:48;;;;;;;2.23;2.03;;;27.60;96.00;;;;;;5058350;28;20477;-87
2021/06/03 10:57:18;;;;;;;2.33;2.17;;;27.50;88.00;;;;;;5056844;28;20494;-92
2021/06/03 10:59:45;;;;;;;2.20;2.00;;;27.50;88.70;;;;;;5056575;28;20545;-87
2021/06/03 11:02:11;;;;;;;2.10;1.90;;;28.20;84.50;;;;;;5057416;28;20865;-92
2021/06/03 11:04:40;;;;;;;2.60;2.20;;;27.30;82.70;;;;;;5057392;28;20469;-87
2021/06/03 11:07:08;;;;;;;2.23;2.03;;;26.60;87.40;;;;;;5056880;28;20447;-88
2021/06/03 11:09:36;;;;;;;2.80;1.73;;;26.60;88.00;;;;;;5057855;28;20515;-86
2021/06/03 11:12:16;;;;;;;4.00;2.80;;;26.50;89.00;;;;;;5057938;28;20446;-88
2021/06/03 11:15:14;;;;;;;3.10;2.80;;;25.90;92.50;;;;;;5060336;28;20450;-88
2021/06/03 11:18:01;;;;;;;2.93;2.63;;;25.30;95.20;;;;;;4998970;28;20555;-88
2021/06/03 11:20:37;;;;;;;4.27;2.57;;;25.70;95.60;;;;;;5050968;28;20466;-89
2021/06/03 11:23:37;;;;;;;3.60;2.47;;;27.00;99.90;;;;;;5055236;28;20461;-88
2021/06/03 11:26:05;;;;;;;3.10;2.47;;;27.40;99.90;;;;;;5061893;28;20426;-87
2021/06/03 11:28:33;;;;;;;3.57;2.50;;;27.60;92.50;;;;;;5057626;28;20447;-91
2021/06/03 11:31:21;;;;;;;3.47;2.40;;;27.60;92.40;;;;;;5054545;28;20483;-87
2021/06/03 11:34:15;;;;;;;2.83;2.37;;;27.90;99.90;;;;;;5054066;28;20840;-87
2021/06/03 11:36:43;;;;;;;2.77;2.57;;;28.80;97.10;;;;;;5020140;28;20490;-87
2021/06/03 11:39:38;;;;;;;2.70;2.40;;;28.50;99.90;;;;;;5055194;28;20507;-91
2021/06/03 11:42:25;;;;;;;3.13;2.70;;;28.70;90.30;;;;;;5055165;28;20485;-87
2021/06/03 11:45:13;;;;;;;2.50;2.30;;;28.30;91.30;;;;;;5059608;28;20443;-87
2021/06/03 11:48:17;;;;;;;2.90;2.70;;;27.20;90.70;;;;;;5054756;28;20454;-95
2021/06/03 11:50:49;;;;;;;2.77;2.53;;;26.90;92.60;;;;;;5057411;28;20426;-87
2021/06/03 11:53:18;;;;;;;4.50;2.90;;;26.60;92.80;;;;;;5055121;28;20459;-89
2021/06/03 11:55:47;;;;;;;3.20;2.90;;;26.50;93.30;;;;;;5054107;28;20543;-88
2021/06/03 11:58:26;;;;;;;2.83;2.60;;;26.40;93.50;;;;;;5058292;28;20894;-88
2021/06/03 12:00:56;;;;;;;2.80;2.47;;;26.90;99.90;;;;;;5059895;28;20450;-86
2021/06/03 12:03:28;;;;;;;2.53;2.30;;;26.60;99.90;;;;;;5061483;28;20443;-86
2021/06/03 12:05:56;;;;;;;5.20;2.50;;;26.70;93.90;;;;;;5072677;28;20445;-87
2021/06/03 12:08:40;;;;;;;2.60;2.40;;;26.60;94.30;;;;;;5065275;28;20449;-87
2021/06/03 12:11:07;;;;;;;2.43;2.23;;;26.70;93.80;;;;;;5062033;28;20442;-91
2021/06/03 12:13:34;;;;;;;3.10;2.70;;;27.80;99.90;;;;;;5063732;28;20866;-87
2021/06/03 12:16:02;;;;;;;2.60;2.40;;;27.50;93.40;;;;;;5058760;28;20524;-88
2021/06/03 12:18:40;;;;;;;3.20;2.90;;;27.80;99.90;;;;;;5061044;28;20445;-89
2021/06/03 12:21:09;;;;;;;2.77;2.57;;;27.00;99.90;;;;;;5058361;28;20450;-87
2021/06/03 12:23:45;;;;;;;3.17;2.47;;;28.00;99.90;;;;;;5054603;28;20821;-87
2021/06/03 12:26:15;;;;;;;3.07;2.67;;;28.00;93.80;;;;;;5048783;28;20450;-89
2021/06/03 12:28:42;;;;;;;3.10;2.50;;;27.50;92.70;;;;;;5053163;28;20938;-87
2021/06/03 12:31:17;;;;;;;2.73;2.53;;;27.40;92.70;;;;;;5052451;28;20489;-90
2021/06/03 12:33:43;;;;;;;3.60;2.63;;;27.20;99.90;;;;;;5037872;28;20450;-90
2021/06/03 12:36:10;;;;;;;2.90;2.70;;;27.10;93.40;;;;;;5045296;28;20498;-93
2021/06/03 12:38:39;;;;;;;5.33;4.73;;;26.60;92.30;;;;;;5054742;28;20454;-86
2021/06/03 12:41:09;;;;;;;3.37;3.07;;;26.10;92.70;;;;;;5056252;28;20447;-90
2021/06/03 12:43:42;;;;;;;3.57;2.30;;;26.00;99.90;;;;;;5050562;28;20447;-90
2021/06/03 12:46:11;;;;;;;4.40;2.90;;;25.80;99.90;;;;;;5052957;28;20507;-90
2021/06/03 12:48:39;;;;;;;3.17;2.70;;;25.00;99.90;;;;;;5033444;28;20798;-86
2021/06/03 12:51:08;;;;;;;2.60;2.40;;;25.10;95.50;;;;;;5042091;28;20439;-90
2021/06/03 12:53:35;;;;;;;4.03;2.00;;;24.70;96.40;;;;;;5052665;28;20463;-90
2021/06/03 12:56:10;;;;;;;3.60;2.80;;;24.60;99.90;;;;;;5065787;23;20482;-94
2021/06/03 12:58:37;;;;;;;3.20;2.27;;;24.50;96.70;;;;;;5049492;28;20565;-92
2021/06/03 13:01:06;;;;;;;16.70;14.00;;;24.80;99.90;;;;;;5047844;28;20447;-93
2021/06/03 13:03:33;;;;;;;32.57;25.53;;;24.60;98.10;;;;;;5059578;28;20515;-92
2021/06/03 13:06:05;;;;;;;3.13;2.87;;;24.30;97.70;;;;;;5060906;28;20439;-90
2021/06/03 13:08:46;;;;;;;3.83;2.30;;;24.20;97.30;;;;;;5062853;28;20423;-94
2021/06/03 13:11:24;;;;;;;4.00;2.70;;;24.30;97.70;;;;;;5059275;28;20527;-88
2021/06/03 13:13:51;;;;;;;4.30;2.53;;;24.30;98.00;;;;;;5060648;28;20458;-89
2021/06/03 13:16:23;;;;;;;3.47;2.50;;;24.30;98.10;;;;;;5065354;23;20552;-93
2021/06/03 13:18:51;;;;;;;3.20;2.77;;;24.10;97.40;;;;;;5049519;28;20449;-87
2021/06/03 13:21:18;;;;;;;5.23;2.60;;;24.10;97.70;;;;;;5045388;28;20439;-90
2021/06/03 13:23:46;;;;;;;5.50;2.53;;;24.10;97.50;;;;;;5040908;28;20991;-90
2021/06/03 13:26:18;;;;;;;2.40;2.20;;;24.20;97.20;;;;;;5048250;28;20460;-91
2021/06/03 13:28:50;;;;;;;2.50;2.30;;;23.50;99.90;;;;;;5039574;28;20450;-84
2021/06/03 13:31:24;;;;;;;3.23;2.83;;;23.60;99.90;;;;;;5046736;28;20443;-85